sensor_id;sensor_type;location;lat;lon;timestamp;temperature;humidity
47626;DHT22;33342;45.574;9.252;2023-07-20T00:00:46;30.70;99.90
47626;DHT22;33342;45.574;9.252;2023-07-20T00:03:14;30.70;99.90
47626;DHT22;33342;45.574;9.252;2023-07-20T00:05:46;30.60;99.90
47626;DHT22;33342;45.574;9.252;2023-07-20T00:08:13;30.70;99.90
47626;DHT22;33342;45.574;9.252;2023-07-20T00:10:41;30.60;99.90
47626;DHT22;33342;45.574;9.252;2023-07-20T00:13:11;30.60;99.90
47626;DHT22;33342;45.574;9.252;2023-07-20T00:15:38;30.50;99.90
47626;DHT22;33342;45.574;9.252;2023-07-20T00:18:05;30.50;99.90
47626;DHT22;33342;45.574;9.252;2023-07-20T00:20:33;30.50;99.90
47626;DHT22;33342;45.574;9.252;2023-07-20T00:23:00;30.50;99.90
47626;DHT22;33342;45.574;9.252;2023-07-20T00:25:27;30.40;99.90
47626;DHT22;33342;45.574;9.252;2023-07-20T00:27:54;30.40;99.90
47626;DHT22;33342;45.574;9.252;2023-07-20T00:30:21;30.40;99.90
47626;DHT22;33342;45.574;9.252;2023-07-20T00:32:49;30.40;99.90
47626;DHT22;33342;45.574;9.252;2023-07-20T00:35:16;30.40;99.90
47626;DHT22;33342;45.574;9.252;2023-07-20T00:37:43;30.30;99.90
47626;DHT22;33342;45.574;9.252;2023-07-20T00:40:10;30.30;99.90
47626;DHT22;33342;45.574;9.252;2023-07-20T00:42:38;30.30;99.90
47626;DHT22;33342;45.574;9.252;2023-07-20T00:45:06;30.30;99.90
47626;DHT22;33342;45.574;9.252;2023-07-20T00:47:33;30.20;99.90
47626;DHT22;33342;45.574;9.252;2023-07-20T00:50:02;30.20;99.90
47626;DHT22;33342;45.574;9.252;2023-07-20T00:52:31;30.20;99.90
47626;DHT22;33342;45.574;9.252;2023-07-20T00:54:58;30.20;99.90
47626;DHT22;33342;45.574;9.252;2023-07-20T00:57:26;30.10;99.90
47626;DHT22;33342;45.574;9.252;2023-07-20T00:59:54;30.10;99.90
47626;DHT22;33342;45.574;9.252;2023-07-20T01:02:23;30.10;99.90
47626;DHT22;33342;45.574;9.252;2023-07-20T01:04:50;30.10;99.90
47626;DHT22;33342;45.574;9.252;2023-07-20T01:07:32;30.00;99.90
47626;DHT22;33342;45.574;9.252;2023-07-20T01:10:06;30.00;99.90
47626;DHT22;33342;45.574;9.252;2023-07-20T01:12:42;30.00;99.90
47626;DHT22;33342;45.574;9.252;2023-07-20T01:15:10;29.90;99.90
47626;DHT22;33342;45.574;9.252;2023-07-20T01:17:37;29.90;99.90
47626;DHT22;33342;45.574;9.252;2023-07-20T01:20:07;29.90;99.90
47626;DHT22;33342;45.574;9.252;2023-07-20T01:30:29;29.80;99.90
47626;DHT22;33342;45.574;9.252;2023-07-20T01:33:00;29.80;99.90
47626;DHT22;33342;45.574;9.252;2023-07-20T01:35:30;29.80;99.90
47626;DHT22;33342;45.574;9.252;2023-07-20T01:37:58;29.70;99.90
47626;DHT22;33342;45.574;9.252;2023-07-20T01:40:26;29.70;99.90
47626;DHT22;33342;45.574;9.252;2023-07-20T01:42:54;29.70;99.90
47626;DHT22;33342;45.574;9.252;2023-07-20T01:45:21;29.70;99.90
47626;DHT22;33342;45.574;9.252;2023-07-20T01:47:48;29.70;99.90
47626;DHT22;33342;45.574;9.252;2023-07-20T01:50:15;29.60;99.90
47626;DHT22;33342;45.574;9.252;2023-07-20T01:52:43;29.60;99.90
47626;DHT22;33342;45.574;9.252;2023-07-20T01:55:10;29.70;99.90
47626;DHT22;33342;45.574;9.252;2023-07-20T01:57:37;29.60;99.90
47626;DHT22;33342;45.574;9.252;2023-07-20T02:00:05;29.60;99.90
47626;DHT22;33342;45.574;9.252;2023-07-20T02:02:41;29.60;99.90
47626;DHT22;33342;45.574;9.252;2023-07-20T02:05:10;29.60;99.90
47626;DHT22;33342;45.574;9.252;2023-07-20T02:07:37;29.60;99.90
47626;DHT22;33342;45.574;9.252;2023-07-20T02:10:04;29.60;99.90
47626;DHT22;33342;45.574;9.252;2023-07-20T02:12:32;29.50;99.90
47626;DHT22;33342;45.574;9.252;2023-07-20T02:14:59;29.60;99.90
47626;DHT22;33342;45.574;9.252;2023-07-20T02:17:26;29.60;99.90
47626;DHT22;33342;45.574;9.252;2023-07-20T02:19:54;29.60;99.90
47626;DHT22;33342;45.574;9.252;2023-07-20T02:22:22;29.60;99.90
47626;DHT22;33342;45.574;9.252;2023-07-20T02:24:49;29.50;99.90
47626;DHT22;33342;45.574;9.252;2023-07-20T02:27:17;29.50;99.90
47626;DHT22;33342;45.574;9.252;2023-07-20T02:29:44;29.50;99.90
47626;DHT22;33342;45.574;9.252;2023-07-20T02:32:11;29.50;99.90
47626;DHT22;33342;45.574;9.252;2023-07-20T02:34:38;29.40;99.90
47626;DHT22;33342;45.574;9.252;2023-07-20T02:37:05;29.50;99.90
47626;DHT22;33342;45.574;9.252;2023-07-20T02:39:34;29.50;99.90
47626;DHT22;33342;45.574;9.252;2023-07-20T02:42:02;29.40;99.90
47626;DHT22;33342;45.574;9.252;2023-07-20T02:44:29;29.40;99.90
47626;DHT22;33342;45.574;9.252;2023-07-20T02:46:57;29.40;99.90
47626;DHT22;33342;45.574;9.252;2023-07-20T02:49:24;29.40;99.90
47626;DHT22;33342;45.574;9.252;2023-07-20T02:51:51;29.40;99.90
47626;DHT22;33342;45.574;9.252;2023-07-20T02:54:18;29.40;99.90
47626;DHT22;33342;45.574;9.252;2023-07-20T02:56:45;29.30;99.90
47626;DHT22;33342;45.574;9.252;2023-07-20T02:59:12;29.30;99.90
47626;DHT22;33342;45.574;9.252;2023-07-20T03:01:39;29.30;99.90
47626;DHT22;33342;45.574;9.252;2023-07-20T03:04:09;29.30;99.90
47626;DHT22;33342;45.574;9.252;2023-07-20T03:06:39;29.30;99.90
47626;DHT22;33342;45.574;9.252;2023-07-20T03:09:06;29.20;99.90
47626;DHT22;33342;45.574;9.252;2023-07-20T03:11:33;29.20;99.90
47626;DHT22;33342;45.574;9.252;2023-07-20T03:14:01;29.10;99.90
47626;DHT22;33342;45.574;9.252;2023-07-20T03:16:29;29.10;99.90
47626;DHT22;33342;45.574;9.252;2023-07-20T03:19:00;29.10;99.90
47626;DHT22;33342;45.574;9.252;2023-07-20T03:21:29;29.10;99.90
47626;DHT22;33342;45.574;9.252;2023-07-20T03:23:58;29.00;99.90
47626;DHT22;33342;45.574;9.252;2023-07-20T03:26:25;29.00;99.90
47626;DHT22;33342;45.574;9.252;2023-07-20T03:28:53;29.00;99.90
47626;DHT22;33342;45.574;9.252;2023-07-20T03:31:21;28.90;99.90
47626;DHT22;33342;45.574;9.252;2023-07-20T03:33:48;28.90;99.90
47626;DHT22;33342;45.574;9.252;2023-07-20T03:36:17;28.90;99.90
47626;DHT22;33342;45.574;9.252;2023-07-20T03:38:44;28.90;99.90
47626;DHT22;33342;45.574;9.252;2023-07-20T03:41:11;28.80;99.90
47626;DHT22;33342;45.574;9.252;2023-07-20T03:43:39;28.80;99.90
47626;DHT22;33342;45.574;9.252;2023-07-20T03:46:06;28.70;99.90
47626;DHT22;33342;45.574;9.252;2023-07-20T03:48:34;28.70;99.90
47626;DHT22;33342;45.574;9.252;2023-07-20T03:51:01;28.70;99.90
47626;DHT22;33342;45.574;9.252;2023-07-20T03:53:29;28.70;99.90
47626;DHT22;33342;45.574;9.252;2023-07-20T03:55:56;28.70;99.90
47626;DHT22;33342;45.574;9.252;2023-07-20T03:58:23;28.70;99.90
47626;DHT22;33342;45.574;9.252;2023-07-20T04:00:51;28.60;99.90
47626;DHT22;33342;45.574;9.252;2023-07-20T04:03:20;28.60;99.90
47626;DHT22;33342;45.574;9.252;2023-07-20T04:05:47;28.60;99.90
47626;DHT22;33342;45.574;9.252;2023-07-20T04:08:14;28.60;99.90
47626;DHT22;33342;45.574;9.252;2023-07-20T04:10:45;28.60;99.90
47626;DHT22;33342;45.574;9.252;2023-07-20T04:13:12;28.50;99.90
47626;DHT22;33342;45.574;9.252;2023-07-20T04:15:39;28.60;99.90
47626;DHT22;33342;45.574;9.252;2023-07-20T04:18:06;28.60;99.90
47626;DHT22;33342;45.574;9.252;2023-07-20T04:20:36;28.50;99.90
47626;DHT22;33342;45.574;9.252;2023-07-20T04:23:03;28.50;99.90
47626;DHT22;33342;45.574;9.252;2023-07-20T04:25:31;28.50;99.90
47626;DHT22;33342;45.574;9.252;2023-07-20T04:28:07;28.50;99.90
47626;DHT22;33342;45.574;9.252;2023-07-20T04:30:43;28.50;99.90
47626;DHT22;33342;45.574;9.252;2023-07-20T04:33:11;28.50;99.90
47626;DHT22;33342;45.574;9.252;2023-07-20T04:35:48;28.50;99.90
47626;DHT22;33342;45.574;9.252;2023-07-20T04:38:22;28.50;99.90
47626;DHT22;33342;45.574;9.252;2023-07-20T04:41:01;28.50;99.90
47626;DHT22;33342;45.574;9.252;2023-07-20T04:43:32;28.50;99.90
47626;DHT22;33342;45.574;9.252;2023-07-20T04:45:59;28.50;99.90
47626;DHT22;33342;45.574;9.252;2023-07-20T04:48:29;28.50;99.90
47626;DHT22;33342;45.574;9.252;2023-07-20T04:50:56;28.50;99.90
47626;DHT22;33342;45.574;9.252;2023-07-20T04:53:25;28.50;99.90
47626;DHT22;33342;45.574;9.252;2023-07-20T04:55:52;28.40;99.90
47626;DHT22;33342;45.574;9.252;2023-07-20T04:58:23;28.40;99.90
47626;DHT22;33342;45.574;9.252;2023-07-20T05:00:52;28.40;99.90
47626;DHT22;33342;45.574;9.252;2023-07-20T05:03:20;28.40;99.90
47626;DHT22;33342;45.574;9.252;2023-07-20T05:05:48;28.30;99.90
47626;DHT22;33342;45.574;9.252;2023-07-20T05:08:16;28.30;99.90
47626;DHT22;33342;45.574;9.252;2023-07-20T05:10:44;28.30;99.90
47626;DHT22;33342;45.574;9.252;2023-07-20T05:13:11;28.30;99.90
47626;DHT22;33342;45.574;9.252;2023-07-20T05:15:38;28.30;99.90
47626;DHT22;33342;45.574;9.252;2023-07-20T05:18:09;28.30;99.90
47626;DHT22;33342;45.574;9.252;2023-07-20T05:20:36;28.30;99.90
47626;DHT22;33342;45.574;9.252;2023-07-20T05:23:04;28.30;99.90
47626;DHT22;33342;45.574;9.252;2023-07-20T05:25:32;28.30;99.90
47626;DHT22;33342;45.574;9.252;2023-07-20T05:27:59;28.40;99.90
47626;DHT22;33342;45.574;9.252;2023-07-20T05:30:27;28.40;99.90
47626;DHT22;33342;45.574;9.252;2023-07-20T05:32:56;28.30;99.90
47626;DHT22;33342;45.574;9.252;2023-07-20T05:35:23;28.30;99.90
47626;DHT22;33342;45.574;9.252;2023-07-20T05:37:50;28.40;99.90
47626;DHT22;33342;45.574;9.252;2023-07-20T05:40:18;28.30;99.90
47626;DHT22;33342;45.574;9.252;2023-07-20T05:42:47;28.30;99.90
47626;DHT22;33342;45.574;9.252;2023-07-20T05:45:15;28.40;99.90
47626;DHT22;33342;45.574;9.252;2023-07-20T05:47:43;28.40;99.90
47626;DHT22;33342;45.574;9.252;2023-07-20T05:50:10;28.40;99.90
47626;DHT22;33342;45.574;9.252;2023-07-20T05:52:37;28.40;99.90
47626;DHT22;33342;45.574;9.252;2023-07-20T05:55:07;28.40;99.90
47626;DHT22;33342;45.574;9.252;2023-07-20T05:57:34;28.40;99.90
47626;DHT22;33342;45.574;9.252;2023-07-20T06:00:02;28.40;99.90
47626;DHT22;33342;45.574;9.252;2023-07-20T06:02:38;28.50;99.90
47626;DHT22;33342;45.574;9.252;2023-07-20T06:05:07;28.40;99.90
47626;DHT22;33342;45.574;9.252;2023-07-20T06:07:37;28.40;99.90
47626;DHT22;33342;45.574;9.252;2023-07-20T06:10:06;28.40;99.90
47626;DHT22;33342;45.574;9.252;2023-07-20T06:12:33;28.40;99.90
47626;DHT22;33342;45.574;9.252;2023-07-20T06:15:03;28.50;99.90
47626;DHT22;33342;45.574;9.252;2023-07-20T06:17:31;28.50;99.90
47626;DHT22;33342;45.574;9.252;2023-07-20T06:19:58;28.50;99.90
47626;DHT22;33342;45.574;9.252;2023-07-20T06:22:25;28.50;99.90
47626;DHT22;33342;45.574;9.252;2023-07-20T06:24:52;28.50;99.90
47626;DHT22;33342;45.574;9.252;2023-07-20T06:27:20;28.60;99.90
47626;DHT22;33342;45.574;9.252;2023-07-20T06:29:47;28.60;99.90
47626;DHT22;33342;45.574;9.252;2023-07-20T06:32:14;28.60;99.90
47626;DHT22;33342;45.574;9.252;2023-07-20T06:34:41;28.60;99.90
47626;DHT22;33342;45.574;9.252;2023-07-20T06:37:08;28.60;99.90
47626;DHT22;33342;45.574;9.252;2023-07-20T06:39:36;28.60;99.90
47626;DHT22;33342;45.574;9.252;2023-07-20T06:42:06;28.50;99.90
47626;DHT22;33342;45.574;9.252;2023-07-20T06:44:33;28.50;99.90
47626;DHT22;33342;45.574;9.252;2023-07-20T06:47:01;28.50;99.90
47626;DHT22;33342;45.574;9.252;2023-07-20T06:49:28;28.50;99.90
47626;DHT22;33342;45.574;9.252;2023-07-20T06:51:55;28.60;99.90
47626;DHT22;33342;45.574;9.252;2023-07-20T06:54:22;28.50;99.90
47626;DHT22;33342;45.574;9.252;2023-07-20T06:56:50;28.50;99.90
47626;DHT22;33342;45.574;9.252;2023-07-20T06:59:20;28.50;99.90
47626;DHT22;33342;45.574;9.252;2023-07-20T07:01:48;28.50;99.90
47626;DHT22;33342;45.574;9.252;2023-07-20T07:04:15;28.50;99.90
47626;DHT22;33342;45.574;9.252;2023-07-20T07:06:43;28.50;99.90
47626;DHT22;33342;45.574;9.252;2023-07-20T07:09:11;28.50;99.90
47626;DHT22;33342;45.574;9.252;2023-07-20T07:11:38;28.50;99.90
47626;DHT22;33342;45.574;9.252;2023-07-20T07:14:05;28.50;99.90
47626;DHT22;33342;45.574;9.252;2023-07-20T07:16:34;28.50;99.90
47626;DHT22;33342;45.574;9.252;2023-07-20T07:19:05;28.50;99.90
47626;DHT22;33342;45.574;9.252;2023-07-20T07:21:32;28.50;99.90
47626;DHT22;33342;45.574;9.252;2023-07-20T07:23:59;28.50;99.90
47626;DHT22;33342;45.574;9.252;2023-07-20T07:26:26;28.40;99.90
47626;DHT22;33342;45.574;9.252;2023-07-20T07:28:54;28.50;99.90
47626;DHT22;33342;45.574;9.252;2023-07-20T07:31:21;28.50;99.90
47626;DHT22;33342;45.574;9.252;2023-07-20T07:33:48;28.50;99.90
47626;DHT22;33342;45.574;9.252;2023-07-20T07:36:15;28.50;99.90
47626;DHT22;33342;45.574;9.252;2023-07-20T07:38:42;28.50;99.90
47626;DHT22;33342;45.574;9.252;2023-07-20T07:41:13;28.60;99.90
47626;DHT22;33342;45.574;9.252;2023-07-20T07:43:41;28.60;99.90
47626;DHT22;33342;45.574;9.252;2023-07-20T07:46:08;28.60;99.90
47626;DHT22;33342;45.574;9.252;2023-07-20T07:48:35;28.60;99.90
47626;DHT22;33342;45.574;9.252;2023-07-20T07:51:02;28.70;99.90
47626;DHT22;33342;45.574;9.252;2023-07-20T07:53:29;28.70;99.90
47626;DHT22;33342;45.574;9.252;2023-07-20T07:55:56;28.70;99.90
47626;DHT22;33342;45.574;9.252;2023-07-20T07:58:23;28.70;99.90
47626;DHT22;33342;45.574;9.252;2023-07-20T08:00:51;28.70;99.90
47626;DHT22;33342;45.574;9.252;2023-07-20T08:03:18;28.80;99.90
47626;DHT22;33342;45.574;9.252;2023-07-20T08:05:46;28.70;99.90
47626;DHT22;33342;45.574;9.252;2023-07-20T08:08:13;28.80;99.90
47626;DHT22;33342;45.574;9.252;2023-07-20T08:10:40;28.80;99.90
47626;DHT22;33342;45.574;9.252;2023-07-20T08:13:07;28.80;99.90
47626;DHT22;33342;45.574;9.252;2023-07-20T08:15:34;28.80;99.90
47626;DHT22;33342;45.574;9.252;2023-07-20T08:18:01;28.80;99.90
47626;DHT22;33342;45.574;9.252;2023-07-20T08:20:29;28.80;99.90
47626;DHT22;33342;45.574;9.252;2023-07-20T08:22:56;28.80;99.90
47626;DHT22;33342;45.574;9.252;2023-07-20T08:25:25;28.80;99.90
47626;DHT22;33342;45.574;9.252;2023-07-20T08:27:52;28.80;99.90
47626;DHT22;33342;45.574;9.252;2023-07-20T08:30:21;28.90;99.90
47626;DHT22;33342;45.574;9.252;2023-07-20T08:32:50;28.90;99.90
47626;DHT22;33342;45.574;9.252;2023-07-20T08:35:17;28.90;99.90
47626;DHT22;33342;45.574;9.252;2023-07-20T08:37:48;28.90;99.90
47626;DHT22;33342;45.574;9.252;2023-07-20T08:40:15;28.90;99.90
47626;DHT22;33342;45.574;9.252;2023-07-20T08:42:42;28.90;99.90
47626;DHT22;33342;45.574;9.252;2023-07-20T08:45:13;28.90;99.90
47626;DHT22;33342;45.574;9.252;2023-07-20T08:47:42;29.00;99.90
47626;DHT22;33342;45.574;9.252;2023-07-20T08:50:11;29.00;99.90
47626;DHT22;33342;45.574;9.252;2023-07-20T08:52:39;29.00;99.90
47626;DHT22;33342;45.574;9.252;2023-07-20T08:55:06;29.00;99.90
47626;DHT22;33342;45.574;9.252;2023-07-20T08:57:34;29.00;99.90
47626;DHT22;33342;45.574;9.252;2023-07-20T09:00:03;29.00;99.90
47626;DHT22;33342;45.574;9.252;2023-07-20T09:02:35;29.10;99.90
47626;DHT22;33342;45.574;9.252;2023-07-20T09:05:07;29.10;99.90
47626;DHT22;33342;45.574;9.252;2023-07-20T09:07:36;29.10;99.90
47626;DHT22;33342;45.574;9.252;2023-07-20T09:10:03;29.10;99.90
47626;DHT22;33342;45.574;9.252;2023-07-20T09:12:37;29.20;99.90
47626;DHT22;33342;45.574;9.252;2023-07-20T09:15:05;29.20;99.90
47626;DHT22;33342;45.574;9.252;2023-07-20T09:17:33;29.20;99.90
47626;DHT22;33342;45.574;9.252;2023-07-20T09:20:05;29.20;99.90
47626;DHT22;33342;45.574;9.252;2023-07-20T09:22:35;29.20;99.90
47626;DHT22;33342;45.574;9.252;2023-07-20T09:25:02;29.20;99.90
47626;DHT22;33342;45.574;9.252;2023-07-20T09:27:36;29.20;99.90
47626;DHT22;33342;45.574;9.252;2023-07-20T09:30:06;29.30;99.90
47626;DHT22;33342;45.574;9.252;2023-07-20T09:32:39;29.30;99.90
47626;DHT22;33342;45.574;9.252;2023-07-20T09:35:21;29.30;99.90
47626;DHT22;33342;45.574;9.252;2023-07-20T09:37:53;29.30;99.90
47626;DHT22;33342;45.574;9.252;2023-07-20T09:40:41;29.40;99.90
47626;DHT22;33342;45.574;9.252;2023-07-20T09:43:12;29.40;99.90
47626;DHT22;33342;45.574;9.252;2023-07-20T09:45:42;29.30;99.90
47626;DHT22;33342;45.574;9.252;2023-07-20T09:48:12;29.40;99.90
47626;DHT22;33342;45.574;9.252;2023-07-20T09:50:49;29.40;99.90
47626;DHT22;33342;45.574;9.252;2023-07-20T09:53:17;29.40;99.90
47626;DHT22;33342;45.574;9.252;2023-07-20T09:55:46;29.40;99.90
47626;DHT22;33342;45.574;9.252;2023-07-20T09:58:15;29.40;99.90
47626;DHT22;33342;45.574;9.252;2023-07-20T10:00:44;29.50;99.90
47626;DHT22;33342;45.574;9.252;2023-07-20T10:03:21;29.50;99.90
47626;DHT22;33342;45.574;9.252;2023-07-20T10:06:02;29.50;99.90
47626;DHT22;33342;45.574;9.252;2023-07-20T10:08:32;29.50;99.90
47626;DHT22;33342;45.574;9.252;2023-07-20T10:11:04;29.50;99.90
47626;DHT22;33342;45.574;9.252;2023-07-20T10:13:37;29.60;99.90
47626;DHT22;33342;45.574;9.252;2023-07-20T10:16:11;29.60;99.90
47626;DHT22;33342;45.574;9.252;2023-07-20T10:18:54;29.60;99.90
47626;DHT22;33342;45.574;9.252;2023-07-20T10:21:22;29.60;99.90
47626;DHT22;33342;45.574;9.252;2023-07-20T10:23:59;29.60;99.90
47626;DHT22;33342;45.574;9.252;2023-07-20T10:26:27;29.60;99.90
47626;DHT22;33342;45.574;9.252;2023-07-20T10:28:55;29.70;99.90
47626;DHT22;33342;45.574;9.252;2023-07-20T10:31:24;29.70;99.90
47626;DHT22;33342;45.574;9.252;2023-07-20T10:33:52;29.70;99.90
47626;DHT22;33342;45.574;9.252;2023-07-20T10:36:26;29.70;99.90
47626;DHT22;33342;45.574;9.252;2023-07-20T10:38:58;29.80;99.90
47626;DHT22;33342;45.574;9.252;2023-07-20T10:41:29;29.70;99.90
47626;DHT22;33342;45.574;9.252;2023-07-20T10:44:04;29.80;99.90
47626;DHT22;33342;45.574;9.252;2023-07-20T10:46:44;29.80;99.90
47626;DHT22;33342;45.574;9.252;2023-07-20T10:49:13;29.80;99.90
47626;DHT22;33342;45.574;9.252;2023-07-20T10:51:48;29.90;99.90
47626;DHT22;33342;45.574;9.252;2023-07-20T10:56:49;29.90;99.90
47626;DHT22;33342;45.574;9.252;2023-07-20T11:01:55;29.90;99.90
47626;DHT22;33342;45.574;9.252;2023-07-20T11:04:54;30.00;99.90
47626;DHT22;33342;45.574;9.252;2023-07-20T11:07:49;30.00;99.90
47626;DHT22;33342;45.574;9.252;2023-07-20T11:10:17;30.00;99.90
47626;DHT22;33342;45.574;9.252;2023-07-20T11:13:17;30.00;99.90
47626;DHT22;33342;45.574;9.252;2023-07-20T11:15:52;30.10;99.90
47626;DHT22;33342;45.574;9.252;2023-07-20T11:18:28;30.10;99.90
47626;DHT22;33342;45.574;9.252;2023-07-20T11:20:55;30.10;99.90
47626;DHT22;33342;45.574;9.252;2023-07-20T11:23:23;30.10;99.90
47626;DHT22;33342;45.574;9.252;2023-07-20T11:25:50;30.10;99.90
47626;DHT22;33342;45.574;9.252;2023-07-20T11:28:17;30.10;99.90
47626;DHT22;33342;45.574;9.252;2023-07-20T11:30:44;30.20;99.90
47626;DHT22;33342;45.574;9.252;2023-07-20T11:33:11;30.20;99.90
47626;DHT22;33342;45.574;9.252;2023-07-20T11:35:45;30.30;99.90
47626;DHT22;33342;45.574;9.252;2023-07-20T11:38:16;30.30;99.90
47626;DHT22;33342;45.574;9.252;2023-07-20T11:40:44;30.30;99.90
47626;DHT22;33342;45.574;9.252;2023-07-20T11:43:14;30.30;99.90
47626;DHT22;33342;45.574;9.252;2023-07-20T11:45:45;30.40;99.90
47626;DHT22;33342;45.574;9.252;2023-07-20T11:48:16;30.40;99.90
47626;DHT22;33342;45.574;9.252;2023-07-20T11:50:44;30.40;99.90
47626;DHT22;33342;45.574;9.252;2023-07-20T11:53:11;30.40;99.90
47626;DHT22;33342;45.574;9.252;2023-07-20T11:55:40;30.50;99.90
47626;DHT22;33342;45.574;9.252;2023-07-20T11:58:09;30.50;99.90
47626;DHT22;33342;45.574;9.252;2023-07-20T12:00:38;30.50;99.90
47626;DHT22;33342;45.574;9.252;2023-07-20T12:03:07;30.50;99.90
47626;DHT22;33342;45.574;9.252;2023-07-20T12:05:35;30.50;99.90
47626;DHT22;33342;45.574;9.252;2023-07-20T12:08:21;30.50;99.90
47626;DHT22;33342;45.574;9.252;2023-07-20T12:10:49;30.50;99.90
47626;DHT22;33342;45.574;9.252;2023-07-20T12:13:16;30.60;99.90
47626;DHT22;33342;45.574;9.252;2023-07-20T12:15:44;30.60;99.90
47626;DHT22;33342;45.574;9.252;2023-07-20T12:18:11;30.60;99.90
47626;DHT22;33342;45.574;9.252;2023-07-20T12:20:38;30.70;99.90
47626;DHT22;33342;45.574;9.252;2023-07-20T12:23:11;30.60;99.90
47626;DHT22;33342;45.574;9.252;2023-07-20T12:28:10;30.70;99.90
47626;DHT22;33342;45.574;9.252;2023-07-20T12:30:39;30.70;99.90
47626;DHT22;33342;45.574;9.252;2023-07-20T12:33:06;30.70;99.90
47626;DHT22;33342;45.574;9.252;2023-07-20T12:35:34;30.80;99.90
47626;DHT22;33342;45.574;9.252;2023-07-20T12:38:01;30.80;99.90
47626;DHT22;33342;45.574;9.252;2023-07-20T12:40:29;30.80;99.90
47626;DHT22;33342;45.574;9.252;2023-07-20T12:42:57;30.80;99.90
47626;DHT22;33342;45.574;9.252;2023-07-20T12:45:24;30.90;99.90
47626;DHT22;33342;45.574;9.252;2023-07-20T12:47:51;30.90;99.90
47626;DHT22;33342;45.574;9.252;2023-07-20T12:50:19;30.90;99.90
47626;DHT22;33342;45.574;9.252;2023-07-20T12:52:46;30.90;99.90
47626;DHT22;33342;45.574;9.252;2023-07-20T12:55:13;30.90;99.90
47626;DHT22;33342;45.574;9.252;2023-07-20T12:57:40;30.90;99.90
47626;DHT22;33342;45.574;9.252;2023-07-20T13:00:10;30.90;99.90
47626;DHT22;33342;45.574;9.252;2023-07-20T13:02:38;31.00;99.90
47626;DHT22;33342;45.574;9.252;2023-07-20T13:05:06;31.00;99.90
47626;DHT22;33342;45.574;9.252;2023-07-20T13:07:37;31.00;99.90
47626;DHT22;33342;45.574;9.252;2023-07-20T13:10:08;31.00;99.90
47626;DHT22;33342;45.574;9.252;2023-07-20T13:12:37;31.00;99.90
47626;DHT22;33342;45.574;9.252;2023-07-20T13:15:06;31.00;99.90
47626;DHT22;33342;45.574;9.252;2023-07-20T13:17:37;31.10;99.90
47626;DHT22;33342;45.574;9.252;2023-07-20T13:20:09;31.10;99.90
47626;DHT22;33342;45.574;9.252;2023-07-20T13:22:38;31.10;99.90
47626;DHT22;33342;45.574;9.252;2023-07-20T13:25:06;31.10;99.90
47626;DHT22;33342;45.574;9.252;2023-07-20T13:27:34;31.10;99.90
47626;DHT22;33342;45.574;9.252;2023-07-20T13:30:01;31.20;99.90
47626;DHT22;33342;45.574;9.252;2023-07-20T13:32:36;31.20;99.90
47626;DHT22;33342;45.574;9.252;2023-07-20T13:35:03;31.20;99.90
47626;DHT22;33342;45.574;9.252;2023-07-20T13:37:31;31.20;99.90
47626;DHT22;33342;45.574;9.252;2023-07-20T13:39:58;31.20;99.90
47626;DHT22;33342;45.574;9.252;2023-07-20T13:42:26;31.20;99.90
47626;DHT22;33342;45.574;9.252;2023-07-20T13:44:53;31.20;99.90
47626;DHT22;33342;45.574;9.252;2023-07-20T13:47:22;31.30;99.90
47626;DHT22;33342;45.574;9.252;2023-07-20T13:49:50;31.30;99.90
47626;DHT22;33342;45.574;9.252;2023-07-20T13:52:30;31.30;99.90
47626;DHT22;33342;45.574;9.252;2023-07-20T13:55:01;31.30;99.90
47626;DHT22;33342;45.574;9.252;2023-07-20T13:57:31;31.40;99.90
47626;DHT22;33342;45.574;9.252;2023-07-20T14:00:04;31.40;99.90
47626;DHT22;33342;45.574;9.252;2023-07-20T14:02:38;31.40;99.90
47626;DHT22;33342;45.574;9.252;2023-07-20T14:05:08;31.40;99.90
47626;DHT22;33342;45.574;9.252;2023-07-20T14:07:39;31.50;99.90
47626;DHT22;33342;45.574;9.252;2023-07-20T14:10:07;31.50;99.90
47626;DHT22;33342;45.574;9.252;2023-07-20T14:12:37;31.50;99.90
47626;DHT22;33342;45.574;9.252;2023-07-20T14:15:05;31.50;99.90
47626;DHT22;33342;45.574;9.252;2023-07-20T14:17:32;31.60;99.90
47626;DHT22;33342;45.574;9.252;2023-07-20T14:19:59;31.60;99.90
47626;DHT22;33342;45.574;9.252;2023-07-20T14:22:26;31.60;99.90
47626;DHT22;33342;45.574;9.252;2023-07-20T14:24:53;31.70;99.90
47626;DHT22;33342;45.574;9.252;2023-07-20T14:27:21;31.70;99.90
47626;DHT22;33342;45.574;9.252;2023-07-20T14:29:48;31.70;99.90
47626;DHT22;33342;45.574;9.252;2023-07-20T14:32:15;31.70;99.90
47626;DHT22;33342;45.574;9.252;2023-07-20T14:34:43;31.80;99.90
47626;DHT22;33342;45.574;9.252;2023-07-20T14:37:12;31.80;99.90
47626;DHT22;33342;45.574;9.252;2023-07-20T14:39:40;31.80;99.90
47626;DHT22;33342;45.574;9.252;2023-07-20T14:42:07;31.90;99.90
47626;DHT22;33342;45.574;9.252;2023-07-20T14:44:34;31.90;99.90
47626;DHT22;33342;45.574;9.252;2023-07-20T14:47:04;31.90;99.90
47626;DHT22;33342;45.574;9.252;2023-07-20T14:49:40;31.90;99.90
47626;DHT22;33342;45.574;9.252;2023-07-20T14:52:07;31.90;99.90
47626;DHT22;33342;45.574;9.252;2023-07-20T14:54:38;31.90;99.90
47626;DHT22;33342;45.574;9.252;2023-07-20T14:57:05;31.90;99.90
47626;DHT22;33342;45.574;9.252;2023-07-20T14:59:40;32.00;99.90
47626;DHT22;33342;45.574;9.252;2023-07-20T15:02:11;32.00;99.90
47626;DHT22;33342;45.574;9.252;2023-07-20T15:04:49;32.00;99.90
47626;DHT22;33342;45.574;9.252;2023-07-20T15:07:20;32.00;99.90
47626;DHT22;33342;45.574;9.252;2023-07-20T15:09:50;32.10;99.90
47626;DHT22;33342;45.574;9.252;2023-07-20T15:12:18;32.10;99.90
47626;DHT22;33342;45.574;9.252;2023-07-20T15:15:12;32.10;99.90
47626;DHT22;33342;45.574;9.252;2023-07-20T15:17:38;32.10;99.90
47626;DHT22;33342;45.574;9.252;2023-07-20T15:20:07;32.10;99.90
47626;DHT22;33342;45.574;9.252;2023-07-20T15:22:35;32.10;99.90
47626;DHT22;33342;45.574;9.252;2023-07-20T15:25:03;32.20;99.90
47626;DHT22;33342;45.574;9.252;2023-07-20T15:27:31;32.20;99.90
47626;DHT22;33342;45.574;9.252;2023-07-20T15:29:58;32.10;99.90
47626;DHT22;33342;45.574;9.252;2023-07-20T15:32:25;32.10;99.90
47626;DHT22;33342;45.574;9.252;2023-07-20T15:34:53;32.20;99.90
47626;DHT22;33342;45.574;9.252;2023-07-20T15:37:20;32.20;99.90
47626;DHT22;33342;45.574;9.252;2023-07-20T15:39:48;32.20;99.90
47626;DHT22;33342;45.574;9.252;2023-07-20T15:42:16;32.30;99.90
47626;DHT22;33342;45.574;9.252;2023-07-20T15:44:43;32.30;99.90
47626;DHT22;33342;45.574;9.252;2023-07-20T15:47:10;32.30;99.90
47626;DHT22;33342;45.574;9.252;2023-07-20T15:49:38;32.30;99.90
47626;DHT22;33342;45.574;9.252;2023-07-20T15:52:06;32.30;99.90
47626;DHT22;33342;45.574;9.252;2023-07-20T15:54:34;32.30;99.90
47626;DHT22;33342;45.574;9.252;2023-07-20T15:57:01;32.30;99.90